Pileas I — P3YG9 — position and weather

sailwx.info

Track history (hours):
 
Tides and Currents Weather Stations Pressure Air Temp Water Temp Dewpoint Dewpoint Depression Visibility Wind Speed Wind Dir Waves Ship Positions

Pileas I

Last reported at 2015-Dec-11 18:20 UTC. Time now 2016-May-01 21:19 UTC.
Position N 34°19' E 033°07'.
Warning: this ship's position is months out of date.

Length 36 m; draft 3.6 m.

Type: Tug. MMSI: 209668000.

Date/timePositionNaut miles runAvg speedWind from/ knotsBaromVisibWave heightAir tempDewpointWater temp
2015-Dec-11 18:20N 34°19' E 033°07'11 5.3
2015-Dec-11 16:13N 34°30' E 033°12'4 5.8
2015-Dec-11 15:33N 34°33' E 033°14'5 5.5
2015-Dec-11 14:33N 34°38' E 033°17'4 3.8
2015-Dec-11 13:32N 34°42' E 033°18'1 0.3
2015-Dec-11 10:25N 34°43' E 033°18'6 5.7
2015-Dec-11 09:27N 34°40' E 033°12'6 6.7
2015-Dec-11 08:32N 34°40' E 033°04'0 0.0
2015-Dec-11 07:33N 34°40' E 033°04'0 0.1
2015-Dec-11 06:31N 34°40' E 033°04'1 0.7
2015-Dec-11 05:33N 34°40' E 033°04'0 0.0
2015-Dec-11 04:33N 34°40' E 033°04'0 0.0
2015-Dec-11 03:33N 34°40' E 033°04'0 0.0
2015-Dec-11 02:32N 34°40' E 033°04'0 0.0
2015-Dec-11 01:32N 34°40' E 033°04'0 0.0
2015-Dec-11 00:33N 34°40' E 033°04'0 0.0
2015-Dec-10 23:33N 34°40' E 033°04'0 0.0
2015-Dec-10 22:33N 34°40' E 033°04'0 0.0
2015-Dec-10 21:33N 34°40' E 033°04'0 0.0
2015-Dec-10 20:32N 34°40' E 033°04'0 0.0
2015-Dec-10 19:33N 34°40' E 033°04'0 0.0
2015-Dec-10 18:33N 34°40' E 033°04'0 0.0
2015-Dec-10 17:33N 34°40' E 033°04'0 0.0
2015-Dec-10 16:33N 34°40' E 033°04'0 0.0
2015-Dec-10 15:32N 34°40' E 033°04'0 0.0
2015-Dec-10 14:32N 34°40' E 033°04'0 0.0
2015-Dec-10 13:33N 34°40' E 033°04'0 0.0
2015-Dec-10 12:33N 34°40' E 033°04'0 0.0
2015-Dec-10 11:33N 34°40' E 033°04'0 0.0
2015-Dec-10 10:33N 34°40' E 033°04'0 0.0
2015-Dec-10 09:32N 34°40' E 033°04'0 0.0
2015-Dec-10 08:33N 34°40' E 033°04'0 0.0
2015-Dec-10 07:32N 34°40' E 033°04'0 0.0
2015-Dec-10 06:33N 34°40' E 033°04'0 0.0
2015-Dec-10 05:33N 34°40' E 033°04'0 0.0
2015-Dec-10 04:30N 34°40' E 033°04'0 0.0
2015-Dec-10 03:33N 34°40' E 033°04'0 0.0
2015-Dec-10 02:32N 34°40' E 033°04'0 0.0
2015-Dec-10 01:33N 34°40' E 033°04'0 0.0
2015-Dec-10 00:33N 34°40' E 033°04'0 0.0
2015-Dec-09 23:33N 34°40' E 033°04'0 0.0
2015-Dec-09 22:32N 34°40' E 033°04'0 0.0
2015-Dec-09 21:33N 34°40' E 033°04'0 0.0
2015-Dec-09 20:33N 34°40' E 033°04'0 0.0
2015-Dec-09 19:32N 34°40' E 033°04'0 0.0
2015-Dec-09 18:33N 34°40' E 033°04'0 0.0
2015-Dec-09 17:33N 34°40' E 033°04'0 0.0
2015-Dec-09 16:32N 34°40' E 033°04'0 0.0
2015-Dec-09 15:33N 34°40' E 033°04'0 0.0
2015-Dec-09 14:33N 34°40' E 033°04'0 0.0
2015-Dec-09 13:33N 34°40' E 033°04'0 0.0
2015-Dec-09 12:33N 34°40' E 033°04'0 0.0
2015-Dec-09 11:33N 34°40' E 033°04'0 0.0
2015-Dec-09 10:33N 34°40' E 033°04'0 0.0
2015-Dec-09 09:33N 34°40' E 033°04'0 0.0
2015-Dec-09 08:33N 34°40' E 033°04'0 0.0
2015-Dec-09 07:33N 34°40' E 033°04'0 0.0
2015-Dec-09 06:33N 34°40' E 033°04'0 0.0
2015-Dec-09 05:33N 34°40' E 033°04'0 0.0
2015-Dec-09 04:32N 34°40' E 033°04'0 0.0
2015-Dec-09 03:33N 34°40' E 033°04'0 0.0
2015-Dec-09 02:32N 34°40' E 033°04'0 0.0
2015-Dec-09 01:33N 34°40' E 033°04'0 0.0
2015-Dec-09 00:33N 34°40' E 033°04'0 0.0
2015-Dec-08 23:33N 34°40' E 033°04'0 0.0
2015-Dec-08 22:33N 34°40' E 033°04'0 0.0
2015-Dec-08 21:33N 34°40' E 033°04'0 0.0
2015-Dec-08 20:33N 34°40' E 033°04'0 0.0
2015-Dec-08 19:33N 34°40' E 033°04'0 0.0
2015-Dec-08 18:32N 34°40' E 033°04'0 0.0
2015-Dec-08 17:33N 34°40' E 033°04'0 0.0
2015-Dec-08 16:33N 34°40' E 033°04'0 0.0
2015-Dec-08 15:32N 34°40' E 033°04'0 0.0
2015-Dec-08 14:33N 34°40' E 033°04'3 2.9
2015-Dec-08 13:33N 34°39' E 033°01'0 0.1
2015-Dec-08 12:34N 34°39' E 033°00'0 0.0
2015-Dec-08 11:33N 34°39' E 033°00'0 0.0
2015-Dec-08 10:33N 34°39' E 033°00'0 0.0
2015-Dec-08 09:33N 34°39' E 033°00'0 0.0
2015-Dec-08 08:34N 34°39' E 033°00'0 0.0
2015-Dec-08 07:33N 34°39' E 033°00'0 0.0
2015-Dec-08 06:34N 34°39' E 033°00'0 0.0
2015-Dec-08 05:33N 34°39' E 033°00'0 0.0
2015-Dec-08 04:33N 34°39' E 033°00'0 0.0
2015-Dec-08 03:33N 34°39' E 033°00'0 0.0
2015-Dec-08 02:33N 34°39' E 033°00'0 0.0
2015-Dec-08 01:33N 34°39' E 033°00'0 0.0
2015-Dec-08 00:33N 34°39' E 033°00'0 0.0
2015-Dec-07 23:33N 34°39' E 033°00'0 0.0
2015-Dec-07 22:33N 34°39' E 033°00'0 0.0
2015-Dec-07 21:33N 34°39' E 033°00'0 0.0
2015-Dec-07 20:33N 34°39' E 033°00'0 0.0
2015-Dec-07 19:34N 34°39' E 033°00'0 0.0
2015-Dec-07 18:34N 34°39' E 033°00'0 0.0
2015-Dec-07 17:33N 34°39' E 033°00'0 0.0
2015-Dec-07 16:33N 34°39' E 033°00'0 0.0
2015-Dec-07 15:33N 34°39' E 033°00'0 0.0
2015-Dec-07 14:33N 34°39' E 033°00'0 0.0
2015-Dec-07 13:33N 34°39' E 033°00'0 0.0
2015-Dec-07 12:33N 34°39' E 033°00'0 0.0
2015-Dec-07 11:33N 34°39' E 033°00'0 0.0
2015-Dec-07 10:33N 34°39' E 033°00'0 0.0
2015-Dec-07 09:33N 34°39' E 033°00'0 0.0
2015-Dec-07 08:33N 34°39' E 033°00'0 0.0
2015-Dec-07 07:33N 34°39' E 033°00'0 0.0
2015-Dec-07 06:33N 34°39' E 033°00'0 0.0
2015-Dec-07 05:33N 34°39' E 033°00'0 0.0
2015-Dec-07 04:33N 34°39' E 033°00'0 0.0
2015-Dec-07 03:33N 34°39' E 033°00'0 0.0
2015-Dec-07 02:33N 34°39' E 033°00'0 0.0
2015-Dec-07 01:33N 34°39' E 033°00'0 0.0
2015-Dec-07 00:33N 34°39' E 033°00'0 0.0
2015-Dec-06 23:33N 34°39' E 033°00'0 0.0
2015-Dec-06 22:33N 34°39' E 033°00'0 0.0
2015-Dec-06 21:33N 34°39' E 033°00'0 0.0
2015-Dec-06 20:33N 34°39' E 033°00'0 0.0
2015-Dec-06 19:33N 34°39' E 033°00'0 0.0
2015-Dec-06 18:33N 34°39' E 033°00'0 0.0
2015-Dec-06 17:33N 34°39' E 033°00'0 0.0
2015-Dec-06 16:33N 34°39' E 033°00'0 0.0
2015-Dec-06 15:33N 34°39' E 033°00'0 0.0
2015-Dec-06 14:33N 34°39' E 033°00'0 0.0
2015-Dec-06 13:33N 34°39' E 033°00'0 0.0
2015-Dec-06 12:33N 34°39' E 033°00'0 0.0
2015-Dec-06 11:33N 34°39' E 033°00'0 0.0
2015-Dec-06 10:33N 34°39' E 033°00'0 0.0
2015-Dec-06 09:33N 34°39' E 033°00'0 0.0
2015-Dec-06 08:33N 34°39' E 033°00'0 0.0
2015-Dec-06 07:33N 34°39' E 033°00'0 0.0
2015-Dec-06 06:33N 34°39' E 033°00'0 0.0
2015-Dec-06 05:33N 34°39' E 033°00'0 0.0
2015-Dec-06 04:33N 34°39' E 033°00'0 0.0
2015-Dec-06 03:33N 34°39' E 033°00'0 0.0
2015-Dec-06 02:33N 34°39' E 033°00'0 0.0
2015-Dec-06 01:33N 34°39' E 033°00'0 0.0
2015-Dec-06 00:33N 34°39' E 033°00'0 0.0
2015-Dec-05 23:33N 34°39' E 033°00'0 0.0
2015-Dec-05 22:33N 34°39' E 033°00'0 0.0
2015-Dec-05 21:33N 34°39' E 033°00'0 0.0
2015-Dec-05 20:33N 34°39' E 033°00'0 0.0
2015-Dec-05 19:33N 34°39' E 033°00'0 0.0
2015-Dec-05 18:33N 34°39' E 033°00'0 0.0
2015-Dec-05 17:33N 34°39' E 033°00'0 0.0
2015-Dec-05 16:33N 34°39' E 033°00'0 0.0
2015-Dec-05 15:33N 34°39' E 033°00'0 0.0
2015-Dec-05 14:33N 34°39' E 033°00'0 0.0
2015-Dec-05 13:33N 34°39' E 033°00'0 0.0
2015-Dec-05 12:22N 34°39' E 033°00'0 0.0
2015-Dec-05 11:32N 34°39' E 033°00'0 0.0
2015-Dec-05 10:33N 34°39' E 033°00'0 0.0
2015-Dec-05 09:33N 34°39' E 033°00'0 0.0
2015-Dec-05 08:33N 34°39' E 033°00'0 0.0
2015-Dec-05 07:33N 34°39' E 033°00'0 0.0
2015-Dec-05 06:33N 34°39' E 033°00'0 0.0
2015-Dec-05 05:33N 34°39' E 033°00'0 0.0
2015-Dec-05 04:33N 34°39' E 033°00'0 0.0
2015-Dec-05 03:33N 34°39' E 033°00'0 0.0
2015-Dec-05 02:33N 34°39' E 033°00'0 0.0
2015-Dec-05 01:33N 34°39' E 033°00'0 0.0
2015-Dec-05 00:33N 34°39' E 033°00'0 0.0
2015-Dec-04 23:33N 34°39' E 033°00'0 0.0
2015-Dec-04 22:33N 34°39' E 033°00'0 0.0
2015-Dec-04 21:33N 34°39' E 033°00'0 0.0
2015-Dec-04 20:33N 34°39' E 033°00'0 0.0
2015-Dec-04 19:33N 34°39' E 033°00'0 0.0
2015-Dec-04 18:33N 34°39' E 033°00'0 0.0
2015-Dec-04 17:33N 34°39' E 033°00'0 0.0
2015-Dec-04 16:34N 34°39' E 033°00'0 0.0
2015-Dec-04 15:33N 34°39' E 033°00'0 0.0
2015-Dec-04 14:33N 34°39' E 033°00'0 0.0
2015-Dec-04 13:34N 34°39' E 033°00'0 0.0
2015-Dec-04 12:34N 34°39' E 033°00'0 0.0
2015-Dec-04 11:33N 34°39' E 033°00'0 0.0
2015-Dec-04 10:33N 34°39' E 033°00'0 0.0
2015-Dec-04 09:33N 34°39' E 033°00'0 0.0
2015-Dec-04 08:33N 34°39' E 033°00'0 0.0
2015-Dec-04 07:33N 34°39' E 033°00'0 0.0
2015-Dec-04 06:33N 34°39' E 033°00'0 0.0
2015-Dec-04 05:33N 34°39' E 033°00'0 0.0
2015-Dec-04 04:34N 34°39' E 033°00'0 0.0
2015-Dec-04 03:33N 34°39' E 033°00'0 0.0
2015-Dec-04 02:33N 34°39' E 033°00'0 0.0
2015-Dec-04 01:34N 34°39' E 033°00'0 0.0
2015-Dec-04 00:33N 34°39' E 033°00'0 0.0
2015-Dec-03 23:33N 34°39' E 033°00'0 0.0
2015-Dec-03 22:33N 34°39' E 033°00'0 0.0
2015-Dec-03 21:33N 34°39' E 033°00'0 0.0
2015-Dec-03 20:33N 34°39' E 033°00'0 0.0
2015-Dec-03 19:33N 34°39' E 033°00'0 0.0
2015-Dec-03 18:33N 34°39' E 033°00'0 0.0
2015-Dec-03 17:33N 34°39' E 033°00'0 0.0
2015-Dec-03 16:33N 34°39' E 033°00'0 0.0
2015-Dec-03 15:33N 34°39' E 033°00'0 0.0
2015-Dec-03 14:33N 34°39' E 033°00'0 0.0
2015-Dec-03 13:33N 34°39' E 033°00'0 0.0
2015-Dec-03 12:33N 34°39' E 033°00'0 0.0
2015-Dec-03 11:33N 34°39' E 033°00'0 0.0
2015-Dec-03 10:33N 34°39' E 033°00'0 0.0
2015-Dec-03 09:33N 34°39' E 033°00'0 0.0
2015-Dec-03 08:33N 34°39' E 033°00'0 0.0
2015-Dec-03 07:34N 34°39' E 033°00'0 0.0
2015-Dec-03 06:34N 34°39' E 033°00'0 0.0
2015-Dec-03 05:33N 34°39' E 033°00'0 0.0
2015-Dec-03 04:33N 34°39' E 033°00'0 0.0
2015-Dec-03 03:33N 34°39' E 033°00'0 0.0
2015-Dec-03 02:33N 34°39' E 033°00'0 0.0
2015-Dec-03 01:33N 34°39' E 033°00'0 0.0
2015-Dec-03 00:33N 34°39' E 033°00'0 0.0
2015-Dec-02 23:33N 34°39' E 033°00'0 0.0
2015-Dec-02 22:33N 34°39' E 033°00'0 0.0
2015-Dec-02 21:33N 34°39' E 033°00'0 0.0
2015-Dec-02 20:33N 34°39' E 033°00'0 0.0
2015-Dec-02 19:33N 34°39' E 033°00'0 0.0
2015-Dec-02 18:33N 34°39' E 033°00'0 0.0
2015-Dec-02 17:34N 34°39' E 033°00'0 0.0
2015-Dec-02 16:34N 34°39' E 033°00'0 0.0
2015-Dec-02 15:34N 34°39' E 033°00'0 0.0
2015-Dec-02 14:34N 34°39' E 033°00'0 0.0
2015-Dec-02 13:33N 34°39' E 033°00'0 0.0
2015-Dec-02 12:34N 34°39' E 033°00'0 0.0
2015-Dec-02 11:34N 34°39' E 033°00'0 0.0
2015-Dec-02 10:34N 34°39' E 033°00'0 0.0
2015-Dec-02 09:33N 34°39' E 033°00'0 0.0
2015-Dec-02 08:34N 34°39' E 033°00'0 0.0
2015-Dec-02 07:34N 34°39' E 033°00'0 0.0
2015-Dec-02 06:34N 34°39' E 033°00'0 0.0
2015-Dec-02 05:33N 34°39' E 033°00'0 0.0
2015-Dec-02 04:33N 34°39' E 033°00'0 0.0
2015-Dec-02 03:33N 34°39' E 033°00'0 0.0
2015-Dec-02 02:33N 34°39' E 033°00'0 0.0
2015-Dec-02 01:33N 34°39' E 033°00'0 0.0
2015-Dec-02 00:33N 34°39' E 033°00'0 0.0
2015-Dec-01 23:33N 34°39' E 033°00'0 0.0
2015-Dec-01 22:33N 34°39' E 033°00'0 0.0
2015-Dec-01 21:33N 34°39' E 033°00'0 0.0
2015-Dec-01 20:33N 34°39' E 033°00'0 0.0
2015-Dec-01 19:33N 34°39' E 033°00'0 0.0
2015-Dec-01 18:33N 34°39' E 033°00'  
Track history (hours):
 
Tides and Currents Weather Stations Pressure Air Temp Water Temp Dewpoint Dewpoint Depression Visibility Wind Speed Wind Dir Waves Ship Positions

Pileas I

Last reported at 2015-Dec-11 18:20 UTC. Time now 2016-May-01 21:19 UTC.
Position N 34°19' E 033°07'.
Warning: this ship's position is months out of date.

Length 36 m; draft 3.6 m.

Type: Tug. MMSI: 209668000.

Date/timePositionNaut miles runAvg speedWind from/ knotsBaromVisibWave heightAir tempDewpointWater temp
2015-Dec-11 18:20N 34°19' E 033°07'11 5.3
2015-Dec-11 16:13N 34°30' E 033°12'4 5.8
2015-Dec-11 15:33N 34°33' E 033°14'5 5.5
2015-Dec-11 14:33N 34°38' E 033°17'4 3.8
2015-Dec-11 13:32N 34°42' E 033°18'1 0.3
2015-Dec-11 10:25N 34°43' E 033°18'6 5.7
2015-Dec-11 09:27N 34°40' E 033°12'6 6.7
2015-Dec-11 08:32N 34°40' E 033°04'0 0.0
2015-Dec-11 07:33N 34°40' E 033°04'0 0.1
2015-Dec-11 06:31N 34°40' E 033°04'1 0.7
2015-Dec-11 05:33N 34°40' E 033°04'0 0.0
2015-Dec-11 04:33N 34°40' E 033°04'0 0.0
2015-Dec-11 03:33N 34°40' E 033°04'0 0.0
2015-Dec-11 02:32N 34°40' E 033°04'0 0.0
2015-Dec-11 01:32N 34°40' E 033°04'0 0.0
2015-Dec-11 00:33N 34°40' E 033°04'0 0.0
2015-Dec-10 23:33N 34°40' E 033°04'0 0.0
2015-Dec-10 22:33N 34°40' E 033°04'0 0.0
2015-Dec-10 21:33N 34°40' E 033°04'0 0.0
2015-Dec-10 20:32N 34°40' E 033°04'0 0.0
2015-Dec-10 19:33N 34°40' E 033°04'0 0.0
2015-Dec-10 18:33N 34°40' E 033°04'0 0.0
2015-Dec-10 17:33N 34°40' E 033°04'0 0.0
2015-Dec-10 16:33N 34°40' E 033°04'0 0.0
2015-Dec-10 15:32N 34°40' E 033°04'0 0.0
2015-Dec-10 14:32N 34°40' E 033°04'0 0.0
2015-Dec-10 13:33N 34°40' E 033°04'0 0.0
2015-Dec-10 12:33N 34°40' E 033°04'0 0.0
2015-Dec-10 11:33N 34°40' E 033°04'0 0.0
2015-Dec-10 10:33N 34°40' E 033°04'0 0.0
2015-Dec-10 09:32N 34°40' E 033°04'0 0.0
2015-Dec-10 08:33N 34°40' E 033°04'0 0.0
2015-Dec-10 07:32N 34°40' E 033°04'0 0.0
2015-Dec-10 06:33N 34°40' E 033°04'0 0.0
2015-Dec-10 05:33N 34°40' E 033°04'0 0.0
2015-Dec-10 04:30N 34°40' E 033°04'0 0.0
2015-Dec-10 03:33N 34°40' E 033°04'0 0.0
2015-Dec-10 02:32N 34°40' E 033°04'0 0.0
2015-Dec-10 01:33N 34°40' E 033°04'0 0.0
2015-Dec-10 00:33N 34°40' E 033°04'0 0.0
2015-Dec-09 23:33N 34°40' E 033°04'0 0.0
2015-Dec-09 22:32N 34°40' E 033°04'0 0.0
2015-Dec-09 21:33N 34°40' E 033°04'0 0.0
2015-Dec-09 20:33N 34°40' E 033°04'0 0.0
2015-Dec-09 19:32N 34°40' E 033°04'0 0.0
2015-Dec-09 18:33N 34°40' E 033°04'0 0.0
2015-Dec-09 17:33N 34°40' E 033°04'0 0.0
2015-Dec-09 16:32N 34°40' E 033°04'0 0.0
2015-Dec-09 15:33N 34°40' E 033°04'0 0.0
2015-Dec-09 14:33N 34°40' E 033°04'0 0.0
2015-Dec-09 13:33N 34°40' E 033°04'0 0.0
2015-Dec-09 12:33N 34°40' E 033°04'0 0.0
2015-Dec-09 11:33N 34°40' E 033°04'0 0.0
2015-Dec-09 10:33N 34°40' E 033°04'0 0.0
2015-Dec-09 09:33N 34°40' E 033°04'0 0.0
2015-Dec-09 08:33N 34°40' E 033°04'0 0.0
2015-Dec-09 07:33N 34°40' E 033°04'0 0.0
2015-Dec-09 06:33N 34°40' E 033°04'0 0.0
2015-Dec-09 05:33N 34°40' E 033°04'0 0.0
2015-Dec-09 04:32N 34°40' E 033°04'0 0.0
2015-Dec-09 03:33N 34°40' E 033°04'0 0.0
2015-Dec-09 02:32N 34°40' E 033°04'0 0.0
2015-Dec-09 01:33N 34°40' E 033°04'0 0.0
2015-Dec-09 00:33N 34°40' E 033°04'0 0.0
2015-Dec-08 23:33N 34°40' E 033°04'0 0.0
2015-Dec-08 22:33N 34°40' E 033°04'0 0.0
2015-Dec-08 21:33N 34°40' E 033°04'0 0.0
2015-Dec-08 20:33N 34°40' E 033°04'0 0.0
2015-Dec-08 19:33N 34°40' E 033°04'0 0.0
2015-Dec-08 18:32N 34°40' E 033°04'0 0.0
2015-Dec-08 17:33N 34°40' E 033°04'0 0.0
2015-Dec-08 16:33N 34°40' E 033°04'0 0.0
2015-Dec-08 15:32N 34°40' E 033°04'0 0.0
2015-Dec-08 14:33N 34°40' E 033°04'3 2.9
2015-Dec-08 13:33N 34°39' E 033°01'0 0.1
2015-Dec-08 12:34N 34°39' E 033°00'0 0.0
2015-Dec-08 11:33N 34°39' E 033°00'0 0.0
2015-Dec-08 10:33N 34°39' E 033°00'0 0.0
2015-Dec-08 09:33N 34°39' E 033°00'0 0.0
2015-Dec-08 08:34N 34°39' E 033°00'0 0.0
2015-Dec-08 07:33N 34°39' E 033°00'0 0.0
2015-Dec-08 06:34N 34°39' E 033°00'0 0.0
2015-Dec-08 05:33N 34°39' E 033°00'0 0.0
2015-Dec-08 04:33N 34°39' E 033°00'0 0.0
2015-Dec-08 03:33N 34°39' E 033°00'0 0.0
2015-Dec-08 02:33N 34°39' E 033°00'0 0.0
2015-Dec-08 01:33N 34°39' E 033°00'0 0.0
2015-Dec-08 00:33N 34°39' E 033°00'0 0.0
2015-Dec-07 23:33N 34°39' E 033°00'0 0.0
2015-Dec-07 22:33N 34°39' E 033°00'0 0.0
2015-Dec-07 21:33N 34°39' E 033°00'0 0.0
2015-Dec-07 20:33N 34°39' E 033°00'0 0.0
2015-Dec-07 19:34N 34°39' E 033°00'0 0.0
2015-Dec-07 18:34N 34°39' E 033°00'0 0.0
2015-Dec-07 17:33N 34°39' E 033°00'0 0.0
2015-Dec-07 16:33N 34°39' E 033°00'0 0.0
2015-Dec-07 15:33N 34°39' E 033°00'0 0.0
2015-Dec-07 14:33N 34°39' E 033°00'0 0.0
2015-Dec-07 13:33N 34°39' E 033°00'0 0.0
2015-Dec-07 12:33N 34°39' E 033°00'0 0.0
2015-Dec-07 11:33N 34°39' E 033°00'0 0.0
2015-Dec-07 10:33N 34°39' E 033°00'0 0.0
2015-Dec-07 09:33N 34°39' E 033°00'0 0.0
2015-Dec-07 08:33N 34°39' E 033°00'0 0.0
2015-Dec-07 07:33N 34°39' E 033°00'0 0.0
2015-Dec-07 06:33N 34°39' E 033°00'0 0.0
2015-Dec-07 05:33N 34°39' E 033°00'0 0.0
2015-Dec-07 04:33N 34°39' E 033°00'0 0.0
2015-Dec-07 03:33N 34°39' E 033°00'0 0.0
2015-Dec-07 02:33N 34°39' E 033°00'0 0.0
2015-Dec-07 01:33N 34°39' E 033°00'0 0.0
2015-Dec-07 00:33N 34°39' E 033°00'0 0.0
2015-Dec-06 23:33N 34°39' E 033°00'0 0.0
2015-Dec-06 22:33N 34°39' E 033°00'0 0.0
2015-Dec-06 21:33N 34°39' E 033°00'0 0.0
2015-Dec-06 20:33N 34°39' E 033°00'0 0.0
2015-Dec-06 19:33N 34°39' E 033°00'0 0.0
2015-Dec-06 18:33N 34°39' E 033°00'0 0.0
2015-Dec-06 17:33N 34°39' E 033°00'0 0.0
2015-Dec-06 16:33N 34°39' E 033°00'0 0.0
2015-Dec-06 15:33N 34°39' E 033°00'0 0.0
2015-Dec-06 14:33N 34°39' E 033°00'0 0.0
2015-Dec-06 13:33N 34°39' E 033°00'0 0.0
2015-Dec-06 12:33N 34°39' E 033°00'0 0.0
2015-Dec-06 11:33N 34°39' E 033°00'0 0.0
2015-Dec-06 10:33N 34°39' E 033°00'0 0.0
2015-Dec-06 09:33N 34°39' E 033°00'0 0.0
2015-Dec-06 08:33N 34°39' E 033°00'0 0.0
2015-Dec-06 07:33N 34°39' E 033°00'0 0.0
2015-Dec-06 06:33N 34°39' E 033°00'0 0.0
2015-Dec-06 05:33N 34°39' E 033°00'0 0.0
2015-Dec-06 04:33N 34°39' E 033°00'0 0.0
2015-Dec-06 03:33N 34°39' E 033°00'0 0.0
2015-Dec-06 02:33N 34°39' E 033°00'0 0.0
2015-Dec-06 01:33N 34°39' E 033°00'0 0.0
2015-Dec-06 00:33N 34°39' E 033°00'0 0.0
2015-Dec-05 23:33N 34°39' E 033°00'0 0.0
2015-Dec-05 22:33N 34°39' E 033°00'0 0.0
2015-Dec-05 21:33N 34°39' E 033°00'0 0.0
2015-Dec-05 20:33N 34°39' E 033°00'0 0.0
2015-Dec-05 19:33N 34°39' E 033°00'0 0.0
2015-Dec-05 18:33N 34°39' E 033°00'0 0.0
2015-Dec-05 17:33N 34°39' E 033°00'0 0.0
2015-Dec-05 16:33N 34°39' E 033°00'0 0.0
2015-Dec-05 15:33N 34°39' E 033°00'0 0.0
2015-Dec-05 14:33N 34°39' E 033°00'0 0.0
2015-Dec-05 13:33N 34°39' E 033°00'0 0.0
2015-Dec-05 12:22N 34°39' E 033°00'0 0.0
2015-Dec-05 11:32N 34°39' E 033°00'0 0.0
2015-Dec-05 10:33N 34°39' E 033°00'0 0.0
2015-Dec-05 09:33N 34°39' E 033°00'0 0.0
2015-Dec-05 08:33N 34°39' E 033°00'0 0.0
2015-Dec-05 07:33N 34°39' E 033°00'0 0.0
2015-Dec-05 06:33N 34°39' E 033°00'0 0.0
2015-Dec-05 05:33N 34°39' E 033°00'0 0.0
2015-Dec-05 04:33N 34°39' E 033°00'0 0.0
2015-Dec-05 03:33N 34°39' E 033°00'0 0.0
2015-Dec-05 02:33N 34°39' E 033°00'0 0.0
2015-Dec-05 01:33N 34°39' E 033°00'0 0.0
2015-Dec-05 00:33N 34°39' E 033°00'0 0.0
2015-Dec-04 23:33N 34°39' E 033°00'0 0.0
2015-Dec-04 22:33N 34°39' E 033°00'0 0.0
2015-Dec-04 21:33N 34°39' E 033°00'0 0.0
2015-Dec-04 20:33N 34°39' E 033°00'0 0.0
2015-Dec-04 19:33N 34°39' E 033°00'0 0.0
2015-Dec-04 18:33N 34°39' E 033°00'0 0.0
2015-Dec-04 17:33N 34°39' E 033°00'0 0.0
2015-Dec-04 16:34N 34°39' E 033°00'0 0.0
2015-Dec-04 15:33N 34°39' E 033°00'0 0.0
2015-Dec-04 14:33N 34°39' E 033°00'0 0.0
2015-Dec-04 13:34N 34°39' E 033°00'0 0.0
2015-Dec-04 12:34N 34°39' E 033°00'0 0.0
2015-Dec-04 11:33N 34°39' E 033°00'0 0.0
2015-Dec-04 10:33N 34°39' E 033°00'0 0.0
2015-Dec-04 09:33N 34°39' E 033°00'0 0.0
2015-Dec-04 08:33N 34°39' E 033°00'0 0.0
2015-Dec-04 07:33N 34°39' E 033°00'0 0.0
2015-Dec-04 06:33N 34°39' E 033°00'0 0.0
2015-Dec-04 05:33N 34°39' E 033°00'0 0.0
2015-Dec-04 04:34N 34°39' E 033°00'0 0.0
2015-Dec-04 03:33N 34°39' E 033°00'0 0.0
2015-Dec-04 02:33N 34°39' E 033°00'0 0.0
2015-Dec-04 01:34N 34°39' E 033°00'0 0.0
2015-Dec-04 00:33N 34°39' E 033°00'0 0.0
2015-Dec-03 23:33N 34°39' E 033°00'0 0.0
2015-Dec-03 22:33N 34°39' E 033°00'0 0.0
2015-Dec-03 21:33N 34°39' E 033°00'0 0.0
2015-Dec-03 20:33N 34°39' E 033°00'0 0.0
2015-Dec-03 19:33N 34°39' E 033°00'0 0.0
2015-Dec-03 18:33N 34°39' E 033°00'0 0.0
2015-Dec-03 17:33N 34°39' E 033°00'0 0.0
2015-Dec-03 16:33N 34°39' E 033°00'0 0.0
2015-Dec-03 15:33N 34°39' E 033°00'0 0.0
2015-Dec-03 14:33N 34°39' E 033°00'0 0.0
2015-Dec-03 13:33N 34°39' E 033°00'0 0.0
2015-Dec-03 12:33N 34°39' E 033°00'0 0.0
2015-Dec-03 11:33N 34°39' E 033°00'0 0.0
2015-Dec-03 10:33N 34°39' E 033°00'0 0.0
2015-Dec-03 09:33N 34°39' E 033°00'0 0.0
2015-Dec-03 08:33N 34°39' E 033°00'0 0.0
2015-Dec-03 07:34N 34°39' E 033°00'0 0.0
2015-Dec-03 06:34N 34°39' E 033°00'0 0.0
2015-Dec-03 05:33N 34°39' E 033°00'0 0.0
2015-Dec-03 04:33N 34°39' E 033°00'0 0.0
2015-Dec-03 03:33N 34°39' E 033°00'0 0.0
2015-Dec-03 02:33N 34°39' E 033°00'0 0.0
2015-Dec-03 01:33N 34°39' E 033°00'0 0.0
2015-Dec-03 00:33N 34°39' E 033°00'0 0.0
2015-Dec-02 23:33N 34°39' E 033°00'0 0.0
2015-Dec-02 22:33N 34°39' E 033°00'0 0.0
2015-Dec-02 21:33N 34°39' E 033°00'0 0.0
2015-Dec-02 20:33N 34°39' E 033°00'0 0.0
2015-Dec-02 19:33N 34°39' E 033°00'0 0.0
2015-Dec-02 18:33N 34°39' E 033°00'0 0.0
2015-Dec-02 17:34N 34°39' E 033°00'0 0.0
2015-Dec-02 16:34N 34°39' E 033°00'0 0.0
2015-Dec-02 15:34N 34°39' E 033°00'0 0.0
2015-Dec-02 14:34N 34°39' E 033°00'0 0.0
2015-Dec-02 13:33N 34°39' E 033°00'0 0.0
2015-Dec-02 12:34N 34°39' E 033°00'0 0.0
2015-Dec-02 11:34N 34°39' E 033°00'0 0.0
2015-Dec-02 10:34N 34°39' E 033°00'0 0.0
2015-Dec-02 09:33N 34°39' E 033°00'0 0.0
2015-Dec-02 08:34N 34°39' E 033°00'0 0.0
2015-Dec-02 07:34N 34°39' E 033°00'0 0.0
2015-Dec-02 06:34N 34°39' E 033°00'0 0.0
2015-Dec-02 05:33N 34°39' E 033°00'0 0.0
2015-Dec-02 04:33N 34°39' E 033°00'0 0.0
2015-Dec-02 03:33N 34°39' E 033°00'0 0.0
2015-Dec-02 02:33N 34°39' E 033°00'0 0.0
2015-Dec-02 01:33N 34°39' E 033°00'0 0.0
2015-Dec-02 00:33N 34°39' E 033°00'0 0.0
2015-Dec-01 23:33N 34°39' E 033°00'0 0.0
2015-Dec-01 22:33N 34°39' E 033°00'0 0.0
2015-Dec-01 21:33N 34°39' E 033°00'0 0.0
2015-Dec-01 20:33N 34°39' E 033°00'0 0.0
2015-Dec-01 19:33N 34°39' E 033°00'0 0.0
2015-Dec-01 18:33N 34°39' E 033°00'  

Dump ship's entire track history